createdAt,value
2018-01-29T00:01:40.319Z,10.84
2018-01-29T00:04:07.726Z,10.82
2018-01-29T00:06:35.126Z,10.94
2018-01-29T00:09:02.530Z,10.89
2018-01-29T00:11:29.970Z,10.91
2018-01-29T00:13:57.394Z,10.86
2018-01-29T00:16:24.805Z,10.81
2018-01-29T00:18:52.197Z,10.89
2018-01-29T00:21:19.594Z,10.89
2018-01-29T00:23:46.994Z,10.90
2018-01-29T00:26:14.422Z,10.83
2018-01-29T00:28:41.827Z,10.82
2018-01-29T00:31:09.254Z,10.75
2018-01-29T00:33:36.667Z,10.76
2018-01-29T00:36:04.065Z,10.85
2018-01-29T00:38:31.492Z,10.66
2018-01-29T00:40:58.971Z,10.69
2018-01-29T00:43:26.404Z,10.80
2018-01-29T00:45:53.798Z,10.85
2018-01-29T00:48:21.228Z,10.79
2018-01-29T00:50:48.642Z,10.88
2018-01-29T00:53:16.074Z,10.80
2018-01-29T00:55:43.506Z,10.73
2018-01-29T00:58:10.945Z,10.76
2018-01-29T01:00:38.354Z,10.77
2018-01-29T01:03:05.754Z,10.75
2018-01-29T01:05:33.163Z,10.75
2018-01-29T01:08:00.567Z,10.68
2018-01-29T01:10:27.966Z,10.72
2018-01-29T01:12:55.378Z,10.76
2018-01-29T01:15:22.787Z,10.74
2018-01-29T01:17:50.202Z,10.62
2018-01-29T01:20:17.610Z,10.70
2018-01-29T01:22:45.002Z,10.75
2018-01-29T01:25:12.411Z,10.68
2018-01-29T01:27:39.803Z,10.79
2018-01-29T01:30:07.256Z,10.78
2018-01-29T01:32:34.647Z,10.77
2018-01-29T01:35:02.052Z,10.82
2018-01-29T01:37:29.455Z,10.78
2018-01-29T01:39:56.908Z,10.77
2018-01-29T01:42:24.318Z,10.75
2018-01-29T01:44:51.752Z,10.74
2018-01-29T01:47:19.126Z,10.86
2018-01-29T01:49:46.610Z,10.85
2018-01-29T01:52:14.022Z,10.89
2018-01-29T01:54:42.263Z,10.80
2018-01-29T01:57:09.727Z,10.68
2018-01-29T01:59:37.269Z,10.70
2018-01-29T02:02:04.670Z,10.75
2018-01-29T02:04:32.081Z,10.59
2018-01-29T02:06:59.483Z,10.57
2018-01-29T02:09:26.895Z,10.61
2018-01-29T02:11:54.365Z,10.65
2018-01-29T02:14:21.782Z,10.62
2018-01-29T02:16:49.170Z,10.59
2018-01-29T02:19:16.578Z,10.75
2018-01-29T02:21:43.994Z,10.68
2018-01-29T02:24:11.398Z,10.58
2018-01-29T02:26:38.805Z,10.63
2018-01-29T02:29:06.207Z,10.61
2018-01-29T02:31:33.632Z,10.56
2018-01-29T02:34:01.047Z,10.54
2018-01-29T02:36:28.442Z,10.54
2018-01-29T02:38:55.839Z,10.53
2018-01-29T02:41:23.246Z,10.50
2018-01-29T02:43:50.647Z,10.53
2018-01-29T02:46:18.066Z,10.42
2018-01-29T02:48:45.482Z,10.51
2018-01-29T02:51:13.787Z,10.55
2018-01-29T02:53:41.215Z,10.71
2018-01-29T02:56:08.635Z,10.76
2018-01-29T02:58:36.015Z,10.66
2018-01-29T03:01:03.451Z,10.56
2018-01-29T03:03:30.858Z,10.49
2018-01-29T03:05:58.267Z,10.65
2018-01-29T03:08:25.660Z,10.72
2018-01-29T03:10:53.074Z,10.70
2018-01-29T03:13:20.472Z,10.61
2018-01-29T03:15:47.873Z,10.66
2018-01-29T03:18:15.287Z,10.64
2018-01-29T03:20:42.697Z,10.58
2018-01-29T03:23:10.158Z,10.71
2018-01-29T03:25:37.600Z,10.58
2018-01-29T03:28:05.100Z,10.56
2018-01-29T03:30:32.508Z,10.71
2018-01-29T03:32:59.913Z,10.74
2018-01-29T03:35:27.330Z,10.62
2018-01-29T03:37:54.730Z,10.67
2018-01-29T03:40:22.146Z,10.67
2018-01-29T03:42:49.551Z,10.45
2018-01-29T03:45:16.951Z,10.40
2018-01-29T03:47:44.342Z,10.52
2018-01-29T03:50:11.746Z,10.43
2018-01-29T03:52:39.142Z,10.38
2018-01-29T03:55:06.562Z,10.38
2018-01-29T03:57:33.954Z,10.49
2018-01-29T04:00:01.374Z,10.38
2018-01-29T04:02:28.796Z,10.53
2018-01-29T04:04:56.199Z,10.48
2018-01-29T04:07:23.602Z,10.52
2018-01-29T04:09:51.002Z,10.48
2018-01-29T04:12:18.412Z,10.31
2018-01-29T04:14:45.814Z,10.38
2018-01-29T04:17:13.217Z,10.39
2018-01-29T04:19:40.635Z,10.47
2018-01-29T04:22:08.098Z,10.49
2018-01-29T04:24:35.501Z,10.53
2018-01-29T04:27:03.026Z,10.35
2018-01-29T04:29:30.435Z,10.39
2018-01-29T04:31:57.834Z,10.52
2018-01-29T04:34:25.230Z,10.43
2018-01-29T04:36:52.647Z,10.40
2018-01-29T04:39:20.042Z,10.37
2018-01-29T04:41:47.471Z,10.43
2018-01-29T04:44:14.878Z,10.44
2018-01-29T04:46:42.291Z,10.45
2018-01-29T04:49:09.717Z,10.43
2018-01-29T04:51:37.334Z,10.48
2018-01-29T04:54:04.719Z,10.40
2018-01-29T04:56:32.215Z,10.45
2018-01-29T04:58:59.632Z,10.35
2018-01-29T05:01:27.055Z,10.36
2018-01-29T05:03:54.446Z,10.39
2018-01-29T05:06:21.859Z,10.33
2018-01-29T05:08:49.254Z,10.15
2018-01-29T05:11:17.000Z,10.11
2018-01-29T05:13:44.378Z,10.05
2018-01-29T05:16:11.838Z,10.09
2018-01-29T05:18:39.233Z,10.07
2018-01-29T05:21:06.634Z,10.13
2018-01-29T05:23:34.032Z,10.17
2018-01-29T05:26:01.442Z,10.09
2018-01-29T05:28:28.847Z,10.10
2018-01-29T05:30:56.230Z,10.15
2018-01-29T05:33:23.677Z,10.10
2018-01-29T05:35:51.090Z,10.17
2018-01-29T05:38:18.516Z,10.11
2018-01-29T05:40:45.977Z,10.09
2018-01-29T05:43:13.554Z,10.18
2018-01-29T05:45:40.947Z,10.14
2018-01-29T05:48:08.354Z,10.09
2018-01-29T05:50:35.758Z,10.15
2018-01-29T05:53:03.168Z,10.22
2018-01-29T05:55:30.542Z,10.23
2018-01-29T05:57:57.947Z,10.28
2018-01-29T06:00:25.442Z,10.21
2018-01-29T06:02:52.834Z,10.24
2018-01-29T06:05:20.247Z,10.31
2018-01-29T06:07:47.722Z,10.27
2018-01-29T06:10:15.113Z,10.40
2018-01-29T06:12:42.515Z,10.27
2018-01-29T06:15:09.927Z,10.31
2018-01-29T06:17:37.351Z,10.26
2018-01-29T06:20:04.739Z,10.24
2018-01-29T06:22:32.155Z,10.28
2018-01-29T06:24:59.567Z,10.23
2018-01-29T06:27:26.974Z,10.22
2018-01-29T06:29:54.371Z,10.24
2018-01-29T06:32:22.487Z,10.26
2018-01-29T06:34:49.877Z,10.34
2018-01-29T06:37:17.268Z,10.27
2018-01-29T06:39:44.754Z,10.27
2018-01-29T06:42:12.157Z,10.27
2018-01-29T06:44:39.541Z,10.31
2018-01-29T06:47:06.933Z,10.26
2018-01-29T06:49:34.328Z,10.40
2018-01-29T06:52:01.723Z,10.34
2018-01-29T06:54:29.106Z,10.39
2018-01-29T06:56:56.542Z,10.37
2018-01-29T06:59:23.945Z,10.42
2018-01-29T07:01:51.353Z,10.37
2018-01-29T07:04:18.738Z,10.33
2018-01-29T07:06:46.138Z,10.32
2018-01-29T07:09:13.547Z,10.31
2018-01-29T07:11:40.943Z,10.28
2018-01-29T07:14:08.350Z,10.33
2018-01-29T07:16:35.770Z,10.35
2018-01-29T07:19:03.366Z,10.34
2018-01-29T07:21:30.791Z,10.19
2018-01-29T07:23:58.193Z,10.22
2018-01-29T07:26:25.606Z,10.31
2018-01-29T07:28:52.999Z,10.34
2018-01-29T07:31:20.406Z,10.31
2018-01-29T07:33:47.805Z,10.31
2018-01-29T07:36:15.211Z,10.21
2018-01-29T07:38:42.610Z,10.27
2018-01-29T07:41:10.030Z,10.35
2018-01-29T07:43:37.435Z,10.27
2018-01-29T07:46:04.853Z,10.23
2018-01-29T07:48:32.247Z,10.29
2018-01-29T07:50:59.659Z,10.37
2018-01-29T07:53:27.055Z,10.25
2018-01-29T07:55:54.463Z,10.26
2018-01-29T07:58:21.871Z,10.22
2018-01-29T08:00:49.388Z,10.19
2018-01-29T08:03:16.791Z,10.26
2018-01-29T08:05:44.188Z,10.20
2018-01-29T08:08:11.591Z,10.22
2018-01-29T08:10:39.011Z,10.30
2018-01-29T08:13:06.415Z,10.32
2018-01-29T08:15:33.810Z,10.19
2018-01-29T08:18:01.207Z,10.15
2018-01-29T08:20:28.607Z,10.16
2018-01-29T08:22:56.004Z,10.15
2018-01-29T08:25:23.433Z,10.17
2018-01-29T08:27:50.853Z,10.09
2018-01-29T08:30:18.253Z,10.12
2018-01-29T08:32:45.658Z,10.22
2018-01-29T08:35:13.059Z,10.21
2018-01-29T08:37:40.469Z,10.22
2018-01-29T08:40:07.864Z,10.23
2018-01-29T08:42:35.267Z,10.16
2018-01-29T08:45:02.671Z,10.18
2018-01-29T08:47:30.075Z,10.22
2018-01-29T08:49:57.490Z,10.12
2018-01-29T08:52:24.897Z,10.10
2018-01-29T08:54:52.304Z,10.14
2018-01-29T08:57:19.717Z,10.14
2018-01-29T08:59:47.128Z,10.25
2018-01-29T09:02:14.543Z,10.22
2018-01-29T09:04:41.935Z,10.25
2018-01-29T09:07:09.350Z,10.22
2018-01-29T09:09:36.851Z,10.13
2018-01-29T09:12:04.263Z,10.10
2018-01-29T09:14:31.679Z,10.11
2018-01-29T09:16:59.095Z,10.32
2018-01-29T09:19:26.499Z,10.43
2018-01-29T09:21:53.911Z,10.38
2018-01-29T09:24:21.344Z,10.38
2018-01-29T09:26:48.752Z,10.30
2018-01-29T09:29:16.151Z,10.30
2018-01-29T09:31:43.559Z,10.21
2018-01-29T09:34:10.959Z,10.26
2018-01-29T09:36:38.375Z,10.38
2018-01-29T09:39:05.789Z,10.32
2018-01-29T09:41:33.191Z,10.32
2018-01-29T09:44:00.592Z,10.33
2018-01-29T09:46:28.004Z,10.23
2018-01-29T09:48:55.403Z,10.33
2018-01-29T09:51:22.807Z,10.26
2018-01-29T09:53:50.207Z,10.28
2018-01-29T09:56:17.787Z,10.38
2018-01-29T09:58:45.188Z,10.42
2018-01-29T10:01:12.611Z,10.46
2018-01-29T10:03:40.017Z,10.33
2018-01-29T10:06:07.435Z,10.33
2018-01-29T10:08:34.843Z,10.30
2018-01-29T10:11:02.236Z,10.48
2018-01-29T10:13:29.627Z,10.43
2018-01-29T10:15:57.005Z,10.55
2018-01-29T10:18:24.462Z,10.52
2018-01-29T10:20:51.966Z,10.67
2018-01-29T10:23:19.377Z,10.82
2018-01-29T10:25:46.779Z,10.82
2018-01-29T10:28:14.175Z,10.87
2018-01-29T10:30:41.574Z,11.03
2018-01-29T10:33:08.970Z,10.87
2018-01-29T10:35:36.393Z,11.02
2018-01-29T10:38:03.799Z,11.00
2018-01-29T10:40:31.210Z,10.93
2018-01-29T10:42:58.604Z,11.01
2018-01-29T10:45:25.990Z,10.87
2018-01-29T10:47:53.405Z,10.73
2018-01-29T10:50:20.788Z,10.69
2018-01-29T10:52:48.234Z,10.78
2018-01-29T10:55:15.637Z,10.74
2018-01-29T10:57:43.031Z,10.68
2018-01-29T11:00:10.422Z,10.56
2018-01-29T11:02:37.822Z,10.59
2018-01-29T11:05:05.214Z,10.50
2018-01-29T11:07:32.618Z,10.45
2018-01-29T11:10:00.032Z,10.50
2018-01-29T11:12:27.466Z,10.65
2018-01-29T11:14:54.870Z,10.50
2018-01-29T11:17:22.290Z,10.53
2018-01-29T11:19:49.678Z,10.38
2018-01-29T11:22:17.170Z,10.51
2018-01-29T11:24:44.563Z,10.59
2018-01-29T11:27:11.962Z,10.58
2018-01-29T11:29:39.394Z,10.56
2018-01-29T11:32:06.794Z,10.44
2018-01-29T11:34:34.208Z,10.52
2018-01-29T11:37:01.608Z,10.55
2018-01-29T11:39:29.330Z,10.44
2018-01-29T11:41:56.732Z,10.36
2018-01-29T11:44:24.138Z,10.36
2018-01-29T11:46:51.551Z,10.35
2018-01-29T11:49:18.942Z,10.37
2018-01-29T11:51:46.412Z,10.32
2018-01-29T11:54:13.828Z,10.30
2018-01-29T11:56:41.229Z,10.34
2018-01-29T11:59:08.625Z,10.48
2018-01-29T12:01:36.040Z,10.46
2018-01-29T12:04:03.431Z,10.55
2018-01-29T12:06:30.822Z,10.55
2018-01-29T12:08:58.226Z,10.55
2018-01-29T12:11:25.622Z,10.44
2018-01-29T12:13:53.023Z,10.36
2018-01-29T12:16:20.399Z,10.42
2018-01-29T12:18:47.820Z,10.50
2018-01-29T12:21:15.218Z,10.52
2018-01-29T12:23:42.635Z,10.50
2018-01-29T12:26:10.024Z,10.53
2018-01-29T12:28:37.414Z,10.58
2018-01-29T12:31:04.805Z,10.52
2018-01-29T12:33:32.456Z,10.37
2018-01-29T12:35:59.836Z,10.21
2018-01-29T12:38:27.241Z,10.26
2018-01-29T12:40:54.634Z,10.50
2018-01-29T12:43:22.067Z,10.39
2018-01-29T12:45:49.457Z,10.41
2018-01-29T12:48:16.870Z,10.25
2018-01-29T12:50:44.255Z,10.27
2018-01-29T12:53:11.664Z,10.25
2018-01-29T12:55:39.076Z,10.14
2018-01-29T12:58:06.471Z,10.23
2018-01-29T13:00:33.866Z,10.31
2018-01-29T13:03:01.263Z,10.31
2018-01-29T13:05:28.714Z,10.39
2018-01-29T13:07:56.114Z,10.38
2018-01-29T13:10:23.503Z,10.26
2018-01-29T13:12:50.901Z,10.24
2018-01-29T13:15:18.309Z,10.18
2018-01-29T13:17:45.712Z,10.33
2018-01-29T13:20:13.120Z,10.32
2018-01-29T13:22:40.511Z,10.24
2018-01-29T13:25:07.907Z,10.07
2018-01-29T13:27:35.298Z,10.17
2018-01-29T13:30:02.717Z,10.05
2018-01-29T13:32:30.113Z,9.94
2018-01-29T13:34:57.529Z,9.75
2018-01-29T13:37:24.935Z,9.90
2018-01-29T13:39:52.379Z,9.81
2018-01-29T13:42:19.763Z,9.89
2018-01-29T13:44:47.170Z,9.75
2018-01-29T13:47:14.593Z,9.70
2018-01-29T13:49:42.001Z,9.70
2018-01-29T13:52:09.407Z,9.68
2018-01-29T13:54:36.804Z,9.57
2018-01-29T13:57:04.178Z,9.66
2018-01-29T13:59:31.570Z,9.55
2018-01-29T14:01:58.965Z,9.53
2018-01-29T14:04:26.353Z,9.67
2018-01-29T14:06:53.771Z,9.61
2018-01-29T14:09:21.165Z,9.58
2018-01-29T14:11:48.559Z,9.56
2018-01-29T14:14:15.957Z,9.51
2018-01-29T14:16:43.340Z,9.48
2018-01-29T14:19:10.851Z,9.53
2018-01-29T14:21:38.219Z,9.56
2018-01-29T14:24:05.656Z,9.49
2018-01-29T14:26:33.074Z,9.45
2018-01-29T14:29:00.471Z,9.33
2018-01-29T14:31:27.851Z,9.39
2018-01-29T14:33:55.242Z,9.41
2018-01-29T14:36:22.647Z,9.43
2018-01-29T14:38:50.054Z,9.34
2018-01-29T14:41:17.432Z,9.34
2018-01-29T14:43:44.830Z,9.24
2018-01-29T14:46:12.261Z,9.32
2018-01-29T14:48:39.666Z,9.29
2018-01-29T14:51:07.054Z,9.24
2018-01-29T14:53:34.451Z,9.18
2018-01-29T14:56:01.855Z,9.23
2018-01-29T14:58:29.261Z,9.23
2018-01-29T15:00:56.659Z,9.10
2018-01-29T15:03:24.049Z,8.97
2018-01-29T15:05:51.438Z,9.04
2018-01-29T15:08:18.836Z,8.96
2018-01-29T15:10:46.263Z,8.90
2018-01-29T15:13:13.759Z,8.94
2018-01-29T15:15:41.216Z,8.94
2018-01-29T15:18:08.639Z,8.92
2018-01-29T15:20:36.054Z,8.88
2018-01-29T15:23:03.461Z,8.88
2018-01-29T15:25:30.871Z,8.94
2018-01-29T15:27:58.252Z,8.96
2018-01-29T15:30:25.749Z,8.94
2018-01-29T15:32:53.152Z,8.99
2018-01-29T15:35:20.534Z,8.91
2018-01-29T15:37:47.930Z,8.92
2018-01-29T15:40:15.474Z,9.11
2018-01-29T15:42:42.921Z,9.03
2018-01-29T15:45:10.261Z,9.07
2018-01-29T15:47:37.662Z,8.97
2018-01-29T15:50:05.056Z,8.92
2018-01-29T15:52:32.434Z,9.03
2018-01-29T15:54:59.854Z,8.95
2018-01-29T15:57:27.218Z,8.94
2018-01-29T15:59:54.602Z,8.89
2018-01-29T16:02:22.082Z,8.85
2018-01-29T16:04:49.474Z,8.78
2018-01-29T16:07:16.878Z,8.84
2018-01-29T16:09:44.274Z,8.76
2018-01-29T16:12:11.660Z,8.74
2018-01-29T16:14:39.063Z,8.80
2018-01-29T16:17:06.459Z,8.75
2018-01-29T16:19:33.841Z,8.69
2018-01-29T16:22:01.239Z,8.87
2018-01-29T16:24:28.653Z,8.89
2018-01-29T16:26:56.050Z,8.79
2018-01-29T16:29:23.452Z,8.93
2018-01-29T16:31:50.830Z,8.99
2018-01-29T16:34:18.230Z,8.77
2018-01-29T16:36:45.607Z,8.75
2018-01-29T16:39:12.998Z,8.78
2018-01-29T16:41:40.386Z,8.88
2018-01-29T16:44:07.771Z,8.94
2018-01-29T16:46:35.196Z,8.88
2018-01-29T16:49:02.566Z,8.87
2018-01-29T16:51:29.958Z,8.85
2018-01-29T16:53:57.369Z,8.74
2018-01-29T16:56:24.746Z,8.76
2018-01-29T16:58:52.150Z,8.69
2018-01-29T17:01:19.535Z,8.70
2018-01-29T17:03:46.932Z,8.66
2018-01-29T17:06:14.403Z,8.77
2018-01-29T17:08:41.803Z,8.60
2018-01-29T17:11:09.218Z,8.54
2018-01-29T17:13:36.610Z,8.47
2018-01-29T17:16:04.006Z,8.52
2018-01-29T17:18:31.399Z,8.56
2018-01-29T17:20:58.816Z,8.52
2018-01-29T17:23:26.185Z,8.45
2018-01-29T17:25:53.643Z,8.46
2018-01-29T17:28:21.102Z,8.42
2018-01-29T17:30:48.526Z,8.44
2018-01-29T17:33:15.914Z,8.35
2018-01-29T17:35:43.314Z,8.44
2018-01-29T17:38:10.695Z,8.44
2018-01-29T17:40:38.080Z,8.38
2018-01-29T17:43:05.470Z,8.43
2018-01-29T17:45:32.891Z,8.48
2018-01-29T17:48:00.275Z,8.50
2018-01-29T17:50:27.976Z,8.45
2018-01-29T17:52:55.462Z,8.31
2018-01-29T17:55:22.858Z,8.29
2018-01-29T17:57:50.244Z,8.26
2018-01-29T18:00:17.685Z,8.22
2018-01-29T18:02:45.079Z,8.15
2018-01-29T18:05:12.475Z,8.16
2018-01-29T18:07:39.874Z,8.10
2018-01-29T18:10:07.519Z,8.05
2018-01-29T18:12:34.897Z,8.09
2018-01-29T18:15:02.285Z,7.95
2018-01-29T18:17:29.671Z,8.00
2018-01-29T18:19:57.066Z,7.99
2018-01-29T18:22:25.513Z,7.88
2018-01-29T18:24:53.015Z,7.94
2018-01-29T18:27:20.421Z,7.73
2018-01-29T18:29:47.815Z,7.75
2018-01-29T18:32:15.240Z,7.73
2018-01-29T18:34:42.606Z,7.65
2018-01-29T18:37:09.997Z,7.79
2018-01-29T18:39:37.412Z,7.73
2018-01-29T18:42:04.818Z,7.64
2018-01-29T18:44:32.253Z,7.59
2018-01-29T18:46:59.639Z,7.66
2018-01-29T18:49:27.035Z,7.60
2018-01-29T18:51:54.763Z,7.53
2018-01-29T18:54:22.307Z,7.47
2018-01-29T18:56:49.712Z,7.55
2018-01-29T18:59:17.181Z,7.50
2018-01-29T19:01:44.628Z,7.40
2018-01-29T19:04:12.024Z,7.46
2018-01-29T19:06:39.430Z,7.61
2018-01-29T19:09:06.994Z,7.68
2018-01-29T19:11:34.641Z,7.88
2018-01-29T19:14:02.027Z,8.07
2018-01-29T19:16:29.442Z,8.12
2018-01-29T19:18:56.858Z,8.13
2018-01-29T19:21:24.265Z,8.06
2018-01-29T19:23:51.645Z,8.06
2018-01-29T19:26:19.048Z,8.11
2018-01-29T19:28:46.544Z,8.11
2018-01-29T19:31:13.939Z,7.96
2018-01-29T19:33:41.322Z,7.87
2018-01-29T19:36:08.738Z,7.83
2018-01-29T19:38:36.133Z,7.64
2018-01-29T19:41:03.530Z,7.69
2018-01-29T19:43:31.382Z,7.65
2018-01-29T19:45:58.759Z,7.59
2018-01-29T19:48:26.147Z,7.76
2018-01-29T19:50:53.556Z,7.67
2018-01-29T19:53:20.985Z,7.41
2018-01-29T19:55:48.398Z,7.06
2018-01-29T19:58:15.830Z,7.00
2018-01-29T20:00:43.274Z,6.79
2018-01-29T20:03:10.682Z,6.78
2018-01-29T20:05:38.090Z,6.72
2018-01-29T20:08:05.474Z,6.80
2018-01-29T20:10:32.863Z,6.80
2018-01-29T20:13:00.251Z,6.83
2018-01-29T20:15:27.661Z,6.90
2018-01-29T20:17:55.042Z,6.84
2018-01-29T20:20:22.438Z,6.84
2018-01-29T20:22:49.827Z,6.91
2018-01-29T20:25:17.278Z,6.97
2018-01-29T20:27:44.667Z,6.96
2018-01-29T20:30:12.065Z,7.03
2018-01-29T20:32:39.462Z,6.88
2018-01-29T20:35:07.053Z,6.95
2018-01-29T20:37:34.467Z,6.87
2018-01-29T20:40:01.848Z,6.78
2018-01-29T20:42:29.234Z,6.71
2018-01-29T20:44:56.636Z,6.76
2018-01-29T20:47:24.038Z,6.77
2018-01-29T20:49:51.456Z,6.67
2018-01-29T20:52:18.946Z,6.63
2018-01-29T20:54:46.336Z,6.51
2018-01-29T20:57:13.732Z,6.62
2018-01-29T20:59:41.118Z,6.75
2018-01-29T21:02:08.506Z,6.72
2018-01-29T21:04:35.903Z,6.74
2018-01-29T21:07:03.320Z,6.68
2018-01-29T21:09:30.703Z,6.66
2018-01-29T21:11:58.095Z,6.71
2018-01-29T21:14:25.486Z,6.66
2018-01-29T21:16:53.263Z,6.69
2018-01-29T21:19:20.759Z,6.55
2018-01-29T21:21:48.154Z,6.59
2018-01-29T21:24:15.567Z,6.65
2018-01-29T21:26:42.970Z,6.59
2018-01-29T21:29:10.361Z,6.62
2018-01-29T21:31:37.757Z,6.59
2018-01-29T21:34:05.148Z,6.59
2018-01-29T21:36:32.567Z,6.69
2018-01-29T21:38:59.976Z,6.63
2018-01-29T21:41:27.433Z,6.63
2018-01-29T21:43:54.821Z,6.76
2018-01-29T21:46:22.253Z,6.48
2018-01-29T21:48:49.677Z,6.48
2018-01-29T21:51:17.103Z,6.51
2018-01-29T21:53:44.494Z,6.44
2018-01-29T21:56:11.903Z,6.37
2018-01-29T21:58:39.310Z,6.25
2018-01-29T22:01:06.707Z,6.26
2018-01-29T22:03:34.136Z,6.29
2018-01-29T22:06:01.530Z,6.21
2018-01-29T22:08:28.956Z,6.00
2018-01-29T22:10:56.364Z,5.94
2018-01-29T22:13:23.786Z,5.88
2018-01-29T22:15:51.183Z,5.96
2018-01-29T22:18:18.665Z,5.94
2018-01-29T22:20:46.069Z,5.91
2018-01-29T22:23:13.478Z,6.02
2018-01-29T22:25:40.926Z,5.89
2018-01-29T22:28:08.308Z,5.86
2018-01-29T22:30:35.701Z,5.88
2018-01-29T22:33:03.099Z,5.86
2018-01-29T22:35:30.479Z,5.80
2018-01-29T22:37:57.910Z,5.72
2018-01-29T22:40:25.318Z,5.73
2018-01-29T22:42:52.722Z,5.69
2018-01-29T22:45:20.114Z,5.62
2018-01-29T22:47:47.499Z,5.59
2018-01-29T22:50:14.946Z,5.52
2018-01-29T22:52:42.334Z,5.46
2018-01-29T22:55:09.739Z,5.48
2018-01-29T22:57:37.153Z,5.53
2018-01-29T23:00:04.551Z,5.54
2018-01-29T23:02:31.946Z,5.40
2018-01-29T23:04:59.337Z,5.47
2018-01-29T23:07:26.733Z,5.53
2018-01-29T23:09:54.189Z,5.42
2018-01-29T23:12:21.558Z,5.56
2018-01-29T23:14:48.986Z,5.44
2018-01-29T23:17:16.372Z,5.50
2018-01-29T23:19:43.761Z,5.48
2018-01-29T23:22:11.168Z,5.50
2018-01-29T23:24:38.623Z,5.62
2018-01-29T23:27:06.022Z,5.54
2018-01-29T23:29:33.429Z,5.42
2018-01-29T23:32:00.904Z,5.45
2018-01-29T23:34:28.276Z,5.53
2018-01-29T23:36:55.658Z,5.59
2018-01-29T23:39:23.061Z,5.63
2018-01-29T23:41:50.451Z,5.53
2018-01-29T23:44:17.849Z,5.48
2018-01-29T23:46:45.256Z,5.51
2018-01-29T23:49:12.680Z,5.59
2018-01-29T23:51:40.078Z,5.55
2018-01-29T23:54:07.475Z,5.45
2018-01-29T23:56:34.870Z,5.33
2018-01-29T23:59:02.256Z,5.31
